This is the latest recevied weather packets stored in our database for station/object KI5NYZ-13. If no packets are shown the sender has not sent any weather packets the latest 10 day(s).
| Time | Temp. | Humidity | Pressure | Rain* | Wind** | Luminosity | Snow |
|---|---|---|---|---|---|---|---|
| 1777520903 | 13.89° C | 54% | 1014.3 hPa | 0 mm | - | - | - |
| 1777517568 | 14.44° C | 52% | 1013.4 hPa | 0 mm | - | - | - |
| 1777515652 | 15° C | 52% | 1013.2 hPa | 0 mm | - | - | - |
| 1777513850 | 15.56° C | 51% | 1012.5 hPa | 0 mm | - | - | - |
| 1777512050 | 16.67° C | 48% | 1012.1 hPa | 0 mm | - | - | - |
| 1777510248 | 17.22° C | 46% | 1012 hPa | 0 mm | - | - | - |
| 1777508447 | 17.78° C | 45% | 1011.5 hPa | 0 mm | - | - | - |
| 1777506646 | 18.33° C | 44% | 1011.3 hPa | 0 mm | - | - | - |
| 1777504846 | 18.89° C | 43% | 1011.2 hPa | 0 mm | - | - | - |
| 1777503044 | 19.44° C | 42% | 1010.9 hPa | 0 mm | - | - | - |
| 1777501244 | 19.44° C | 42% | 1011.3 hPa | 0 mm | - | - | - |
| 1777499442 | 20° C | 40% | 1010.9 hPa | 0 mm | - | - | - |
| 1777497642 | 20.56° C | 40% | 1010.9 hPa | 0 mm | - | - | - |
| 1777495841 | 20.56° C | 39% | 1011.1 hPa | 0 mm | - | - | - |
| 1777494040 | 21.11° C | 39% | 1011.3 hPa | 0 mm | - | - | - |
| 1777492238 | 20.56° C | 40% | 1012 hPa | 0 mm | - | - | - |
| 1777490437 | 20° C | 42% | 1012.4 hPa | 0 mm | - | - | - |
| 1777488637 | 20° C | 43% | 1012.8 hPa | 0.76 mm | - | - | - |
| 1777486836 | 19.44° C | 43% | 1013.6 hPa | 1.27 mm | - | - | - |
| 1777485035 | 18.89° C | 45% | 1014 hPa | 1.78 mm | - | - | - |
| 1777483234 | 17.78° C | 48% | 1014.7 hPa | 2.29 mm | - | - | - |
| 1777481432 | 16.67° C | 51% | 1015.4 hPa | 3.56 mm | - | - | - |
| 1777479632 | 16.11° C | 54% | 1016.2 hPa | 6.6 mm | - | - | - |
| 1777477830 | 15° C | 58% | 1015.6 hPa | 5.33 mm | - | - | - |
| 1777476029 | 14.44° C | 62% | 1016.5 hPa | 4.83 mm | - | - | - |
* Rain latest hour (hover to see other rain measurements)
** Current wind speed in m/s (hover to see current wind gust speed)